Time;durP1;ratioP1;P1;durP2;ratioP2;P2;SDS_P1;SDS_P2;PMS_P1;PMS_P2;Temp;Humidity;BMP_temperature;BMP_pressure;BME280_temperature;BME280_humidity;BME280_pressure;Samples;Min_cycle;Max_cycle;Signal;HPM_P1;HPM_P2
2022/06/18 00:00:26;;;;;;;5.18;3.38;;;20.80;99.90;;;;;;5050356;28;20107;-78
2022/06/18 00:02:52;;;;;;;5.80;3.70;;;20.80;99.90;;;;;;5051031;28;20048;-79
2022/06/18 00:05:20;;;;;;;8.02;3.95;;;20.90;99.90;;;;;;5050834;28;20033;-79
2022/06/18 00:07:51;;;;;;;5.05;3.50;;;20.80;99.90;;;;;;5050356;28;20044;-79
2022/06/18 00:10:23;;;;;;;6.32;3.70;;;20.80;99.90;;;;;;5050008;28;20043;-78
2022/06/18 00:15:36;;;;;;;6.97;3.70;;;20.80;99.90;;;;;;5051376;28;20045;-78
2022/06/18 00:18:03;;;;;;;4.72;3.83;;;20.80;99.90;;;;;;5050909;28;20490;-79
2022/06/18 00:20:33;;;;;;;5.60;3.92;;;20.70;99.90;;;;;;5049937;28;20037;-78
2022/06/18 00:23:01;;;;;;;7.57;4.28;;;20.70;99.90;;;;;;5050311;28;20044;-79
2022/06/18 00:25:31;;;;;;;4.43;3.95;;;20.70;99.90;;;;;;5049677;28;20076;-79
2022/06/18 00:27:57;;;;;;;7.13;4.20;;;20.60;99.90;;;;;;5051357;28;20044;-78
2022/06/18 00:30:26;;;;;;;5.13;3.95;;;20.60;99.90;;;;;;5052205;28;20663;-79
2022/06/18 00:32:52;;;;;;;6.57;4.20;;;20.60;99.90;;;;;;5055044;28;20407;-78
2022/06/18 00:35:18;;;;;;;5.07;4.03;;;20.60;99.90;;;;;;5049341;28;20060;-79
2022/06/18 00:37:45;;;;;;;6.65;4.53;;;20.60;99.90;;;;;;5050776;28;20071;-79
2022/06/18 00:40:25;;;;;;;9.50;4.45;;;20.50;99.90;;;;;;5049492;28;20029;-79
2022/06/18 00:42:52;;;;;;;6.47;4.28;;;20.60;99.90;;;;;;5047773;28;20402;-79
2022/06/18 00:45:23;;;;;;;4.63;4.13;;;20.60;99.90;;;;;;5049893;28;20045;-78
2022/06/18 00:48:06;;;;;;;9.80;4.20;;;20.60;99.90;;;;;;5049485;28;20033;-79
2022/06/18 00:50:32;;;;;;;9.63;4.20;;;20.60;99.90;;;;;;5046987;28;20686;-79
2022/06/18 00:53:12;;;;;;;6.25;4.47;;;20.60;99.90;;;;;;5050658;28;20033;-79
2022/06/18 00:55:52;;;;;;;6.35;4.85;;;20.60;99.90;;;;;;5047294;28;20041;-79
2022/06/18 00:58:26;;;;;;;6.82;4.85;;;20.50;99.90;;;;;;5050390;28;20059;-78
2022/06/18 01:00:55;;;;;;;9.30;5.22;;;20.50;99.90;;;;;;5049109;28;20051;-79
2022/06/18 01:03:26;;;;;;;7.20;4.90;;;20.40;99.90;;;;;;5048112;28;20075;-79
2022/06/18 01:05:53;;;;;;;10.55;5.53;;;20.40;99.90;;;;;;5048636;28;20060;-80
2022/06/18 01:08:22;;;;;;;7.53;5.22;;;20.40;99.90;;;;;;5050474;28;20851;-79
2022/06/18 01:10:55;;;;;;;10.52;5.43;;;20.30;99.90;;;;;;5050266;28;20037;-80
2022/06/18 01:13:26;;;;;;;10.20;5.30;;;20.40;99.90;;;;;;5048985;28;20037;-79
2022/06/18 01:15:54;;;;;;;6.90;5.10;;;20.40;99.90;;;;;;5047379;28;20033;-79
2022/06/18 01:18:20;;;;;;;8.35;5.40;;;20.30;99.90;;;;;;5047134;28;20044;-80
2022/06/18 01:20:54;;;;;;;8.88;5.10;;;20.30;99.90;;;;;;5048905;28;20052;-79
2022/06/18 01:23:39;;;;;;;8.63;5.68;;;20.20;99.90;;;;;;5048145;28;20071;-79
2022/06/18 01:26:07;;;;;;;8.65;5.28;;;20.20;99.90;;;;;;5048304;28;20045;-80
2022/06/18 01:28:33;;;;;;;8.82;5.53;;;20.20;99.90;;;;;;5049141;28;20037;-79
2022/06/18 01:30:59;;;;;;;10.32;5.80;;;20.10;99.90;;;;;;5048867;28;20059;-80
2022/06/18 01:33:24;;;;;;;8.00;5.43;;;20.10;99.90;;;;;;5051301;28;20036;-80
2022/06/18 01:35:53;;;;;;;6.65;5.28;;;20.10;99.90;;;;;;5047478;28;20049;-80
2022/06/18 01:38:20;;;;;;;6.70;5.25;;;20.00;99.90;;;;;;5050055;28;20037;-80
2022/06/18 01:44:17;;;;;;;9.27;5.85;;;19.90;99.90;;;;;;4960667;28;20513;-80
2022/06/18 01:46:46;;;;;;;8.75;6.13;;;19.80;99.90;;;;;;4963330;28;20038;-80
2022/06/18 01:49:16;;;;;;;8.50;6.30;;;19.80;99.90;;;;;;5021832;28;20048;-80
2022/06/18 01:51:47;;;;;;;7.07;5.90;;;19.70;99.90;;;;;;5046827;28;20052;-80
2022/06/18 01:54:24;;;;;;;9.80;6.75;;;19.70;99.90;;;;;;5047417;28;20043;-79
2022/06/18 01:56:56;;;;;;;9.60;6.22;;;19.70;99.90;;;;;;5048786;28;20059;-80
2022/06/18 01:59:26;;;;;;;8.25;6.25;;;19.70;99.90;;;;;;5049133;28;20136;-79
2022/06/18 02:01:52;;;;;;;10.43;6.78;;;19.70;99.90;;;;;;5048874;28;20422;-79
2022/06/18 02:04:20;;;;;;;7.93;6.32;;;19.60;99.90;;;;;;5047775;28;20086;-79
2022/06/18 02:06:48;;;;;;;10.98;7.28;;;19.60;99.90;;;;;;5047789;28;20087;-80
2022/06/18 02:09:29;;;;;;;9.45;6.93;;;19.70;99.90;;;;;;5048781;28;20037;-80
2022/06/18 02:11:57;;;;;;;12.57;7.95;;;19.60;99.90;;;;;;5048129;28;20040;-80
2022/06/18 02:14:25;;;;;;;8.45;6.93;;;19.60;99.90;;;;;;5048499;28;20043;-80
2022/06/18 02:16:52;;;;;;;12.07;7.85;;;19.60;99.90;;;;;;5049514;28;20114;-80
2022/06/18 02:19:18;;;;;;;9.40;7.32;;;19.60;99.90;;;;;;5048773;28;20040;-80
2022/06/18 02:21:52;;;;;;;9.25;7.53;;;19.50;99.90;;;;;;5048425;28;20055;-81
2022/06/18 02:24:17;;;;;;;9.15;7.78;;;19.50;99.90;;;;;;5046544;28;20131;-80
2022/06/18 02:26:45;;;;;;;8.95;7.50;;;19.40;99.90;;;;;;5049159;28;20443;-80
2022/06/18 02:29:37;;;;;;;9.82;7.63;;;19.40;99.90;;;;;;5047259;28;20040;-79
2022/06/18 02:32:10;;;;;;;10.80;7.85;;;19.40;99.90;;;;;;5045450;28;20049;-80
2022/06/18 02:34:35;;;;;;;10.20;8.30;;;19.40;99.90;;;;;;5046032;28;20112;-80
2022/06/18 02:37:13;;;;;;;11.70;8.20;;;19.40;99.90;;;;;;5049239;28;20912;-80
2022/06/18 02:39:51;;;;;;;12.52;8.18;;;19.30;99.90;;;;;;5048328;28;20042;-80
2022/06/18 02:42:19;;;;;;;10.95;8.45;;;19.20;99.90;;;;;;5047973;28;20043;-79
2022/06/18 02:44:46;;;;;;;10.90;7.85;;;19.20;99.90;;;;;;5047764;28;20103;-80
2022/06/18 02:47:13;;;;;;;9.88;8.45;;;19.10;99.90;;;;;;5048482;28;20033;-80
2022/06/18 02:50:00;;;;;;;12.95;8.73;;;19.10;99.90;;;;;;5047762;28;20099;-80
2022/06/18 02:52:34;;;;;;;10.70;8.30;;;19.10;99.90;;;;;;5047408;28;20052;-79
2022/06/18 02:55:19;;;;;;;11.38;7.95;;;19.10;99.90;;;;;;5046543;28;20037;-79
2022/06/18 02:57:48;;;;;;;14.65;8.68;;;19.10;99.90;;;;;;5048465;28;20093;-79
2022/06/18 03:00:14;;;;;;;13.75;9.73;;;19.00;99.90;;;;;;5049096;28;20040;-78
2022/06/18 03:02:40;;;;;;;10.80;9.20;;;19.00;99.90;;;;;;5047373;28;20383;-79
2022/06/18 03:05:06;;;;;;;12.23;9.48;;;19.10;99.90;;;;;;5048928;28;20111;-80
2022/06/18 03:07:32;;;;;;;10.50;9.25;;;19.00;99.90;;;;;;5048571;28;20083;-80
2022/06/18 03:12:42;;;;;;;15.48;10.25;;;19.00;99.90;;;;;;5045382;28;20053;-80
2022/06/18 03:15:08;;;;;;;11.93;9.52;;;19.00;99.90;;;;;;5047914;28;20045;-80
2022/06/18 03:17:33;;;;;;;13.82;9.70;;;18.90;99.90;;;;;;5054101;28;20037;-80
2022/06/18 03:20:06;;;;;;;12.60;10.27;;;18.80;99.90;;;;;;5055663;28;20059;-80
2022/06/18 03:22:31;;;;;;;15.63;10.03;;;18.70;99.90;;;;;;5053894;28;20167;-80
2022/06/18 03:24:57;;;;;;;17.90;10.77;;;18.70;99.90;;;;;;5054796;28;20116;-80
2022/06/18 03:27:23;;;;;;;13.95;10.25;;;18.70;99.90;;;;;;5053700;28;20429;-79
2022/06/18 03:29:52;;;;;;;15.57;10.75;;;18.60;99.90;;;;;;5055568;28;20048;-78
2022/06/18 03:32:17;;;;;;;18.63;11.88;;;18.60;99.90;;;;;;5050836;28;20044;-81
2022/06/18 03:34:43;;;;;;;16.95;12.10;;;18.50;99.90;;;;;;5056316;28;20037;-79
2022/06/18 03:37:09;;;;;;;16.00;11.18;;;18.50;99.90;;;;;;5054793;28;20040;-80
2022/06/18 03:39:35;;;;;;;21.13;12.05;;;18.40;99.90;;;;;;5055224;28;20041;-79
2022/06/18 03:42:01;;;;;;;18.13;12.95;;;18.30;99.90;;;;;;5052574;28;20040;-80
2022/06/18 03:44:26;;;;;;;18.27;12.15;;;18.30;99.90;;;;;;5052921;28;20045;-80
2022/06/18 03:46:52;;;;;;;19.55;13.20;;;18.20;99.90;;;;;;5055321;28;20445;-81
2022/06/18 03:49:30;;;;;;;16.77;12.68;;;18.20;99.90;;;;;;5055307;28;20044;-79
2022/06/18 03:51:57;;;;;;;20.23;13.02;;;18.20;99.90;;;;;;5054883;28;20033;-80
2022/06/18 03:54:22;;;;;;;16.77;12.95;;;18.20;99.90;;;;;;5052858;28;20392;-80
2022/06/18 03:56:48;;;;;;;17.98;13.98;;;18.10;99.90;;;;;;5055681;28;20043;-80
2022/06/18 03:59:15;;;;;;;19.95;13.98;;;18.10;99.90;;;;;;5054791;28;20040;-80
2022/06/18 04:01:40;;;;;;;22.85;14.30;;;18.10;99.90;;;;;;5055073;28;20037;-80
2022/06/18 04:04:09;;;;;;;23.73;15.10;;;18.00;99.90;;;;;;5054539;28;20098;-80
2022/06/18 04:06:35;;;;;;;22.00;15.55;;;18.00;99.90;;;;;;5054803;28;20060;-81
2022/06/18 04:09:01;;;;;;;23.50;15.52;;;17.80;99.90;;;;;;5052589;28;20041;-80
2022/06/18 04:11:26;;;;;;;31.20;16.63;;;17.90;99.90;;;;;;5054262;28;20107;-80
2022/06/18 04:13:54;;;;;;;26.50;16.15;;;17.80;99.90;;;;;;5052951;28;20040;-80
2022/06/18 04:16:19;;;;;;;26.35;16.75;;;17.80;99.90;;;;;;5053161;28;20041;-81
2022/06/18 04:18:45;;;;;;;26.52;16.67;;;17.70;99.90;;;;;;5056785;28;20082;-80
2022/06/18 04:21:10;;;;;;;25.20;16.70;;;17.70;99.90;;;;;;5053827;28;20041;-80
2022/06/18 04:23:36;;;;;;;25.73;16.52;;;17.70;99.90;;;;;;5054457;28;20507;-80
2022/06/18 04:26:02;;;;;;;29.70;18.05;;;17.70;99.90;;;;;;5051766;28;20048;-81
2022/06/18 04:28:28;;;;;;;28.17;17.85;;;17.70;99.90;;;;;;5050895;28;20064;-81
2022/06/18 04:30:53;;;;;;;25.60;17.40;;;17.60;99.90;;;;;;5050525;28;20061;-80
2022/06/18 04:33:19;;;;;;;30.98;18.42;;;17.70;99.90;;;;;;5052146;28;20041;-80
2022/06/18 04:35:45;;;;;;;32.03;18.27;;;17.70;99.90;;;;;;5050052;28;20616;-82
2022/06/18 04:38:12;;;;;;;30.80;18.52;;;17.70;99.90;;;;;;5050165;28;20078;-80
2022/06/18 04:40:38;;;;;;;25.95;18.80;;;17.70;99.90;;;;;;5049100;28;20052;-81
2022/06/18 04:43:08;;;;;;;27.10;18.67;;;17.70;99.90;;;;;;5049353;28;21321;-81
2022/06/18 04:45:35;;;;;;;27.75;18.92;;;17.70;99.90;;;;;;5047973;28;20045;-79
2022/06/18 04:48:00;;;;;;;31.67;18.95;;;17.70;99.90;;;;;;5050622;28;20040;-81
2022/06/18 04:50:30;;;;;;;27.15;18.63;;;17.70;99.90;;;;;;5050556;28;20045;-80
2022/06/18 04:52:56;;;;;;;29.90;18.48;;;17.70;99.90;;;;;;5051405;28;20124;-80
2022/06/18 04:55:22;;;;;;;26.67;18.05;;;17.70;99.90;;;;;;5050062;28;20065;-82
2022/06/18 04:57:48;;;;;;;28.52;18.67;;;17.80;99.90;;;;;;5047899;28;20087;-82
2022/06/18 05:00:14;;;;;;;27.48;18.50;;;17.80;99.90;;;;;;5048708;28;20506;-80
2022/06/18 05:02:40;;;;;;;31.48;18.15;;;17.80;99.90;;;;;;5048368;28;20044;-80
2022/06/18 05:05:11;;;;;;;32.00;19.50;;;17.80;99.90;;;;;;5050411;28;20524;-80
2022/06/18 05:07:36;;;;;;;32.40;18.45;;;17.90;99.90;;;;;;5048500;28;20087;-81
2022/06/18 05:10:03;;;;;;;30.60;19.30;;;17.90;99.90;;;;;;5049013;28;20486;-81
2022/06/18 05:12:29;;;;;;;33.45;19.50;;;18.00;99.90;;;;;;5049703;28;20136;-81
2022/06/18 05:14:54;;;;;;;29.70;19.67;;;18.00;99.90;;;;;;5048242;28;20116;-81
2022/06/18 05:17:32;;;;;;;28.40;19.08;;;18.00;99.90;;;;;;5049464;28;20037;-81
2022/06/18 05:19:57;;;;;;;26.05;18.52;;;18.10;99.90;;;;;;5050224;28;20120;-80
2022/06/18 05:22:23;;;;;;;33.60;19.52;;;18.20;99.90;;;;;;5048175;28;20093;-80
2022/06/18 05:24:49;;;;;;;30.90;20.10;;;18.10;99.90;;;;;;5047838;28;20457;-83
2022/06/18 05:27:19;;;;;;;34.58;19.35;;;18.20;99.90;;;;;;5030700;28;20040;-80
2022/06/18 05:29:45;;;;;;;32.25;19.40;;;18.20;99.90;;;;;;5047381;28;20079;-80
2022/06/18 05:32:10;;;;;;;33.45;19.90;;;18.30;99.90;;;;;;5049083;28;20068;-82
2022/06/18 05:34:36;;;;;;;28.40;20.50;;;18.30;99.90;;;;;;5049954;28;20083;-81
2022/06/18 05:37:02;;;;;;;29.15;20.02;;;18.40;99.90;;;;;;5047920;28;20052;-80
2022/06/18 05:39:27;;;;;;;31.85;19.85;;;18.40;99.90;;;;;;5048472;28;20040;-81
2022/06/18 05:41:53;;;;;;;31.10;20.10;;;18.40;99.90;;;;;;5047453;28;20037;-81
2022/06/18 05:44:18;;;;;;;29.45;19.13;;;18.50;99.90;;;;;;5048783;28;20036;-82
2022/06/18 05:46:44;;;;;;;30.92;20.25;;;18.50;99.90;;;;;;5046447;28;20048;-81
2022/06/18 05:49:10;;;;;;;29.73;19.38;;;18.70;99.90;;;;;;5046650;28;20041;-79
2022/06/18 05:51:35;;;;;;;33.20;19.38;;;18.70;99.90;;;;;;5047928;28;20044;-79
2022/06/18 05:54:01;;;;;;;28.25;17.45;;;18.90;99.90;;;;;;5049001;28;20040;-81
2022/06/18 05:56:27;;;;;;;25.05;16.23;;;19.00;99.90;;;;;;5046529;28;20029;-80
2022/06/18 05:58:52;;;;;;;21.23;15.65;;;19.00;99.90;;;;;;5048473;28;20068;-80
2022/06/18 06:01:18;;;;;;;26.77;16.08;;;19.20;99.90;;;;;;5047202;28;20036;-80
2022/06/18 06:03:46;;;;;;;24.63;15.40;;;19.20;99.90;;;;;;5046471;28;20123;-83
2022/06/18 06:06:11;;;;;;;28.67;16.13;;;19.20;99.90;;;;;;5044954;28;20045;-79
2022/06/18 06:08:37;;;;;;;26.63;14.18;;;19.30;99.90;;;;;;5046409;28;20036;-80
2022/06/18 06:13:47;;;;;;;23.98;13.93;;;19.50;99.90;;;;;;5045616;28;20037;-81
2022/06/18 06:16:13;;;;;;;23.38;14.75;;;19.60;99.90;;;;;;5047742;28;20040;-81
2022/06/18 06:18:38;;;;;;;25.10;14.15;;;19.70;99.90;;;;;;5048381;28;20067;-78
2022/06/18 06:21:04;;;;;;;20.42;13.98;;;19.80;99.90;;;;;;5048135;28;20040;-81
2022/06/18 06:23:29;;;;;;;24.20;13.43;;;19.90;99.90;;;;;;5053089;28;20044;-81
2022/06/18 06:25:56;;;;;;;22.25;12.43;;;20.00;99.90;;;;;;5052760;28;20033;-81
2022/06/18 06:28:24;;;;;;;22.25;13.45;;;20.10;99.90;;;;;;5052589;28;20036;-81
2022/06/18 06:30:51;;;;;;;19.60;12.20;;;20.20;99.90;;;;;;5053492;28;20419;-81
2022/06/18 06:33:18;;;;;;;23.42;11.80;;;20.20;99.90;;;;;;5055658;28;20044;-81
2022/06/18 06:35:44;;;;;;;20.85;11.05;;;20.20;99.90;;;;;;5053599;28;20414;-81
2022/06/18 06:38:11;;;;;;;20.52;12.15;;;20.30;99.90;;;;;;5050398;28;20112;-80
2022/06/18 06:40:36;;;;;;;23.15;12.25;;;20.40;99.90;;;;;;5041174;28;20040;-80
2022/06/18 06:43:03;;;;;;;17.20;9.93;;;20.50;99.90;;;;;;5048555;28;20045;-80
2022/06/18 06:45:32;;;;;;;15.48;10.48;;;20.50;99.90;;;;;;5045994;28;20120;-83
2022/06/18 06:47:58;;;;;;;15.02;10.00;;;20.70;99.90;;;;;;5046294;28;20414;-80
2022/06/18 06:50:25;;;;;;;21.52;9.90;;;20.70;99.90;;;;;;5047189;28;20033;-80
2022/06/18 06:52:51;;;;;;;18.63;9.85;;;20.70;99.90;;;;;;5047311;28;20033;-80
2022/06/18 06:58:05;;;;;;;18.88;10.13;;;21.00;99.90;;;;;;5049500;28;20482;-82
2022/06/18 07:00:40;;;;;;;19.33;10.35;;;21.10;99.90;;;;;;5050768;28;20446;-81
2022/06/18 07:03:06;;;;;;;16.40;10.32;;;21.10;99.90;;;;;;5049297;28;20044;-82
2022/06/18 07:05:31;;;;;;;16.23;10.40;;;21.20;99.90;;;;;;5046565;28;20033;-83
2022/06/18 07:07:57;;;;;;;18.67;9.52;;;21.10;99.90;;;;;;5046088;28;20033;-81
2022/06/18 07:10:23;;;;;;;18.30;10.10;;;21.20;99.90;;;;;;5053712;28;20368;-83
2022/06/18 07:12:48;;;;;;;18.38;8.63;;;21.30;99.90;;;;;;5046416;28;20057;-82
2022/06/18 07:15:14;;;;;;;14.40;7.93;;;21.20;99.90;;;;;;5047406;28;20456;-82
2022/06/18 07:17:40;;;;;;;13.90;6.70;;;21.30;99.90;;;;;;5043819;28;20594;-81
2022/06/18 07:20:09;;;;;;;15.43;8.00;;;21.40;99.90;;;;;;5050943;28;20029;-82
2022/06/18 07:22:35;;;;;;;12.75;7.22;;;21.50;99.90;;;;;;5047885;28;20102;-82
2022/06/18 07:25:01;;;;;;;18.20;7.35;;;21.40;99.90;;;;;;5064913;28;20118;-82
2022/06/18 07:27:29;;;;;;;18.85;7.13;;;21.50;99.90;;;;;;5028060;28;20056;-83
2022/06/18 07:29:55;;;;;;;18.95;7.18;;;21.50;99.90;;;;;;5041826;28;20055;-81
2022/06/18 07:32:21;;;;;;;15.63;6.88;;;21.50;99.90;;;;;;5047187;28;20124;-82
2022/06/18 07:34:46;;;;;;;23.30;7.13;;;21.50;99.90;;;;;;5045775;28;20113;-82
2022/06/18 07:37:12;;;;;;;13.15;7.03;;;21.40;99.90;;;;;;5050055;28;20029;-81
2022/06/18 07:39:38;;;;;;;13.13;6.40;;;21.40;99.90;;;;;;5047290;28;20037;-81
2022/06/18 07:42:05;;;;;;;17.50;5.70;;;21.40;99.90;;;;;;5048698;28;20038;-80
2022/06/18 07:44:30;;;;;;;16.10;6.50;;;21.50;99.90;;;;;;5050818;28;20426;-80
2022/06/18 07:47:01;;;;;;;12.50;5.63;;;21.60;99.90;;;;;;5050695;28;20055;-83
2022/06/18 07:49:27;;;;;;;18.23;5.68;;;21.60;99.90;;;;;;5052255;28;20052;-83
2022/06/18 07:51:52;;;;;;;14.75;5.57;;;21.60;99.90;;;;;;5032220;28;20033;-81
2022/06/18 07:54:21;;;;;;;13.18;5.43;;;21.60;99.90;;;;;;5051419;28;20028;-81
2022/06/18 07:56:47;;;;;;;12.57;5.35;;;21.60;99.90;;;;;;5043685;28;20075;-80
2022/06/18 07:59:13;;;;;;;11.88;6.00;;;21.60;99.90;;;;;;5050346;28;20121;-81
2022/06/18 08:01:39;;;;;;;9.18;4.53;;;21.60;99.90;;;;;;5049151;28;20079;-81
2022/06/18 08:04:06;;;;;;;8.63;4.32;;;21.60;99.90;;;;;;5051355;28;20052;-80
2022/06/18 08:06:32;;;;;;;10.15;4.13;;;21.70;99.90;;;;;;5052834;28;20041;-80
2022/06/18 08:08:58;;;;;;;10.35;4.35;;;21.80;99.90;;;;;;5053205;28;20040;-79
2022/06/18 08:11:25;;;;;;;7.70;3.75;;;22.00;99.90;;;;;;5049333;28;20252;-81
2022/06/18 08:13:52;;;;;;;9.30;3.85;;;22.20;99.90;;;;;;5050175;28;20033;-79
2022/06/18 08:16:20;;;;;;;7.00;3.90;;;22.10;99.90;;;;;;5050702;28;20055;-81
2022/06/18 08:18:46;;;;;;;8.13;3.58;;;22.10;99.90;;;;;;5055331;28;20662;-80
2022/06/18 08:21:22;;;;;;;8.32;3.03;;;22.00;99.90;;;;;;5053000;28;20112;-80
2022/06/18 08:23:49;;;;;;;8.02;3.03;;;22.20;99.90;;;;;;5059559;28;20072;-83
2022/06/18 08:26:15;;;;;;;5.30;2.20;;;22.30;99.90;;;;;;5052972;28;20059;-81
2022/06/18 08:28:42;;;;;;;3.97;2.15;;;22.30;99.90;;;;;;5054263;28;20495;-79
2022/06/18 08:31:09;;;;;;;5.88;2.42;;;22.30;99.90;;;;;;5049505;28;20505;-79
2022/06/18 08:33:36;;;;;;;5.57;2.00;;;22.30;99.90;;;;;;5054603;28;20087;-79
2022/06/18 08:36:05;;;;;;;4.25;1.95;;;22.30;99.90;;;;;;5054571;28;20441;-80
2022/06/18 08:38:32;;;;;;;3.65;1.70;;;22.50;99.90;;;;;;5054539;28;20041;-82
2022/06/18 08:41:32;;;;;;;5.80;1.60;;;22.40;99.90;;;;;;5054035;28;20090;-81
2022/06/18 08:43:58;;;;;;;3.20;1.50;;;22.40;99.90;;;;;;5054222;28;20044;-81
2022/06/18 08:46:29;;;;;;;2.95;1.75;;;22.30;99.90;;;;;;5053167;28;20037;-82
2022/06/18 08:49:31;;;;;;;2.42;1.30;;;22.10;99.90;;;;;;5054221;28;20056;-82
2022/06/18 08:52:11;;;;;;;3.10;1.35;;;22.20;99.90;;;;;;5055420;28;20072;-81
2022/06/18 08:55:07;;;;;;;3.13;1.30;;;22.20;99.90;;;;;;5052139;28;20533;-80
2022/06/18 08:58:16;;;;;;;5.03;1.40;;;22.20;99.90;;;;;;5052751;28;20037;-83
2022/06/18 09:01:00;;;;;;;6.57;1.85;;;22.10;99.90;;;;;;5021778;28;20075;-81
2022/06/18 09:03:35;;;;;;;4.65;1.80;;;22.10;99.90;;;;;;5051213;28;20128;-81
2022/06/18 09:06:46;;;;;;;5.32;1.63;;;22.00;99.90;;;;;;5052366;28;20487;-79
2022/06/18 09:09:37;;;;;;;5.82;1.95;;;22.20;99.90;;;;;;5028050;28;20122;-79
2022/06/18 09:12:09;;;;;;;5.13;1.60;;;22.20;99.90;;;;;;5043199;28;20045;-81
2022/06/18 09:14:43;;;;;;;3.03;1.60;;;22.10;99.90;;;;;;5051937;28;20087;-82
2022/06/18 09:17:20;;;;;;;3.15;1.73;;;22.20;99.90;;;;;;5054307;28;20151;-81
2022/06/18 09:20:01;;;;;;;3.67;1.80;;;22.30;99.90;;;;;;5052624;28;20057;-78
2022/06/18 09:22:29;;;;;;;4.05;1.80;;;22.40;99.90;;;;;;5050763;28;20048;-81
2022/06/18 09:25:04;;;;;;;4.05;1.60;;;22.40;99.90;;;;;;5051527;28;20045;-81
2022/06/18 09:27:38;;;;;;;2.88;1.65;;;22.20;99.90;;;;;;5040821;28;20039;-80
2022/06/18 09:30:10;;;;;;;2.92;1.80;;;22.10;99.90;;;;;;5053270;28;20037;-83
2022/06/18 09:33:01;;;;;;;4.10;1.70;;;22.20;99.90;;;;;;5052295;28;20446;-81
2022/06/18 09:35:51;;;;;;;4.68;1.60;;;22.40;99.90;;;;;;5049754;28;20077;-81
2022/06/18 09:38:41;;;;;;;4.57;1.23;;;22.30;99.90;;;;;;5053037;28;20048;-81
2022/06/18 09:41:34;;;;;;;4.35;1.63;;;22.20;99.90;;;;;;5054409;28;20051;-81
2022/06/18 09:44:30;;;;;;;4.72;2.08;;;22.40;99.90;;;;;;5036394;28;20170;-82
2022/06/18 09:47:00;;;;;;;3.92;1.60;;;22.60;99.90;;;;;;5051292;28;20086;-80
2022/06/18 09:49:30;;;;;;;3.00;1.42;;;22.80;99.90;;;;;;5053585;28;20097;-81
2022/06/18 09:54:30;;;;;;;4.15;1.27;;;22.80;99.90;;;;;;5052787;28;20092;-83
2022/06/18 09:56:59;;;;;;;2.17;1.15;;;22.80;99.90;;;;;;5051066;28;20028;-84
2022/06/18 09:59:32;;;;;;;3.22;1.25;;;23.00;99.90;;;;;;5052922;28;20041;-80
2022/06/18 10:01:58;;;;;;;2.95;1.35;;;23.00;99.90;;;;;;5052393;28;20053;-82
2022/06/18 10:07:24;;;;;;;3.70;1.20;;;23.50;99.90;;;;;;5052549;28;20045;-82
2022/06/18 10:09:54;;;;;;;3.75;1.40;;;23.30;99.90;;;;;;5052051;28;20416;-81
2022/06/18 10:12:41;;;;;;;3.25;1.20;;;23.40;99.90;;;;;;5054413;28;20048;-83
2022/06/18 10:15:10;;;;;;;3.75;1.20;;;23.40;99.90;;;;;;5051076;28;20044;-82
2022/06/18 10:18:12;;;;;;;3.85;1.40;;;23.20;99.90;;;;;;5052743;28;20370;-81
2022/06/18 10:20:37;;;;;;;4.50;1.33;;;23.10;99.90;;;;;;5052953;28;20072;-82
2022/06/18 10:23:17;;;;;;;3.28;1.10;;;23.20;99.90;;;;;;5051280;28;20079;-83
2022/06/18 10:26:11;;;;;;;2.55;1.05;;;23.10;99.90;;;;;;5051751;28;20076;-82
2022/06/18 10:28:49;;;;;;;3.28;1.10;;;23.10;99.90;;;;;;5051884;28;20398;-82
2022/06/18 10:31:14;;;;;;;3.80;1.20;;;23.00;99.90;;;;;;5051365;28;20132;-85
2022/06/18 10:33:58;;;;;;;3.22;1.20;;;23.00;99.90;;;;;;5051289;28;20565;-85
2022/06/18 10:36:33;;;;;;;;;;;23.10;99.90;;;;;;5051703;28;20045;-82
2022/06/18 10:39:22;;;;;;;2.97;1.02;;;23.00;99.90;;;;;;5051679;28;19972;-82
2022/06/18 10:41:56;;;;;;;1.52;0.90;;;23.30;99.90;;;;;;5034237;28;20040;-80
2022/06/18 10:44:43;;;;;;;2.47;1.15;;;23.30;99.90;;;;;;5051834;28;20033;-82
2022/06/18 10:47:17;;;;;;;2.42;0.80;;;23.40;99.90;;;;;;5050291;28;20116;-83
2022/06/18 10:49:47;;;;;;;2.35;0.80;;;23.40;99.90;;;;;;5051656;28;20041;-83
2022/06/18 10:52:25;;;;;;;3.13;1.13;;;23.50;99.90;;;;;;5050295;28;20098;-82
2022/06/18 10:55:04;;;;;;;2.33;0.95;;;23.60;99.90;;;;;;5049118;28;20039;-84
2022/06/18 10:57:30;;;;;;;3.10;1.10;;;23.70;99.90;;;;;;5049753;28;20147;-83
2022/06/18 10:59:55;;;;;;;1.67;0.60;;;23.90;99.90;;;;;;5050619;28;20123;-84
2022/06/18 11:02:35;;;;;;;1.63;0.80;;;24.00;99.90;;;;;;5051645;28;20041;-83
2022/06/18 11:05:14;;;;;;;1.85;0.82;;;24.20;99.90;;;;;;5049620;28;20036;-83
2022/06/18 11:07:45;;;;;;;2.97;0.75;;;24.30;99.90;;;;;;5049064;28;20052;-84
2022/06/18 11:10:34;;;;;;;3.10;1.00;;;24.30;99.90;;;;;;5048943;28;20498;-88
2022/06/18 11:13:02;;;;;;;3.28;0.90;;;24.20;99.90;;;;;;5050935;28;20052;-83
2022/06/18 11:15:29;;;;;;;1.73;0.80;;;24.10;99.90;;;;;;5048018;28;20514;-82
2022/06/18 11:17:55;;;;;;;3.03;0.80;;;24.40;99.90;;;;;;5044430;28;20045;-82
2022/06/18 11:20:25;;;;;;;4.10;0.80;;;24.60;99.90;;;;;;5048044;28;20039;-82
2022/06/18 11:22:57;;;;;;;2.47;0.95;;;24.70;99.90;;;;;;5045509;28;20142;-82
2022/06/18 11:25:57;;;;;;;2.67;0.70;;;24.90;99.90;;;;;;5047570;28;20037;-81
2022/06/18 11:28:33;;;;;;;2.08;0.60;;;24.80;99.90;;;;;;5015535;28;20539;-83
2022/06/18 11:30:59;;;;;;;2.80;1.00;;;24.70;99.90;;;;;;5031631;28;20068;-82
2022/06/18 11:33:28;;;;;;;2.83;0.60;;;24.70;99.90;;;;;;5047094;28;20040;-83
2022/06/18 11:35:54;;;;;;;4.80;1.08;;;24.60;99.90;;;;;;5047386;28;20083;-82
2022/06/18 11:38:28;;;;;;;0.98;0.60;;;24.50;99.90;;;;;;5052599;28;20033;-81
2022/06/18 11:40:57;;;;;;;5.47;0.88;;;24.40;99.90;;;;;;5055537;28;20391;-83
2022/06/18 11:43:31;;;;;;;1.63;0.60;;;24.50;99.90;;;;;;5054052;28;20039;-84
2022/06/18 11:46:04;;;;;;;1.90;0.70;;;24.70;99.90;;;;;;5052270;28;20067;-84
2022/06/18 11:48:56;;;;;;;3.15;0.70;;;24.70;99.90;;;;;;5054685;28;20056;-83
2022/06/18 11:51:41;;;;;;;3.13;0.68;;;24.70;99.90;;;;;;5054144;28;20044;-83
2022/06/18 11:54:30;;;;;;;1.77;0.50;;;24.80;99.90;;;;;;5051719;28;20044;-83
2022/06/18 11:57:29;;;;;;;1.60;0.55;;;24.90;99.90;;;;;;5049695;28;20116;-83
2022/06/18 12:00:16;;;;;;;2.70;0.57;;;25.20;99.90;;;;;;5050798;28;20056;-83
2022/06/18 12:02:52;;;;;;;1.25;0.60;;;25.20;99.90;;;;;;5052621;28;20052;-83
2022/06/18 12:05:43;;;;;;;3.35;0.73;;;25.10;99.90;;;;;;5050307;28;20037;-83
2022/06/18 12:08:16;;;;;;;3.70;1.10;;;25.30;99.90;;;;;;5052924;28;20071;-81
2022/06/18 12:10:49;;;;;;;4.22;1.20;;;25.10;99.90;;;;;;5051543;28;20580;-82
2022/06/18 12:13:23;;;;;;;4.07;1.30;;;25.00;99.90;;;;;;5050073;28;20114;-81
2022/06/18 12:16:13;;;;;;;5.80;1.17;;;24.70;99.90;;;;;;5052092;28;20033;-82
2022/06/18 12:18:56;;;;;;;4.18;1.10;;;24.80;99.90;;;;;;5054305;28;20079;-83
2022/06/18 12:21:47;;;;;;;4.65;1.35;;;24.90;99.90;;;;;;5053875;28;20099;-82
2022/06/18 12:24:24;;;;;;;4.18;1.30;;;24.90;99.90;;;;;;5052776;28;20513;-86
2022/06/18 12:27:10;;;;;;;4.20;1.30;;;24.80;99.90;;;;;;5053796;28;20513;-83
2022/06/18 12:29:54;;;;;;;4.10;1.27;;;25.10;99.90;;;;;;5051901;28;20073;-83
2022/06/18 12:32:41;;;;;;;3.13;1.20;;;25.40;99.90;;;;;;5047696;28;20045;-82
2022/06/18 12:35:53;;;;;;;5.05;1.25;;;25.50;99.90;;;;;;5048031;28;20672;-84
2022/06/18 12:38:24;;;;;;;7.13;1.48;;;26.00;99.90;;;;;;4971062;28;20046;-83
2022/06/18 12:41:11;;;;;;;5.45;1.40;;;26.00;99.90;;;;;;4987773;28;20046;-82
2022/06/18 12:43:59;;;;;;;6.78;1.30;;;25.90;99.90;;;;;;5030432;28;20045;-83
2022/06/18 12:46:38;;;;;;;7.03;1.30;;;26.10;99.90;;;;;;5052786;28;20064;-83
2022/06/18 12:49:15;;;;;;;3.63;0.98;;;26.10;99.90;;;;;;5048477;28;20123;-85
2022/06/18 12:51:52;;;;;;;6.22;1.38;;;26.00;99.90;;;;;;5051166;28;20041;-84
2022/06/18 12:54:43;;;;;;;4.55;1.15;;;25.70;99.90;;;;;;5053700;28;20059;-82
2022/06/18 12:57:25;;;;;;;7.15;1.40;;;25.60;99.90;;;;;;5053605;28;20032;-83
2022/06/18 13:00:03;;;;;;;6.63;1.77;;;25.70;99.90;;;;;;5051872;28;20033;-85
2022/06/18 13:03:16;;;;;;;6.88;1.10;;;25.50;99.90;;;;;;5049613;28;20049;-81
2022/06/18 13:05:49;;;;;;;5.18;1.30;;;25.90;99.90;;;;;;5047959;28;20041;-83
2022/06/18 13:08:33;;;;;;;7.70;1.42;;;26.00;99.90;;;;;;5049079;28;20029;-82
2022/06/18 13:11:19;;;;;;;6.05;1.60;;;26.00;99.90;;;;;;5050392;28;20036;-86
2022/06/18 13:13:51;;;;;;;7.70;1.52;;;25.40;99.90;;;;;;5044811;28;20506;-84
2022/06/18 13:16:27;;;;;;;5.93;1.63;;;25.40;99.90;;;;;;5051964;28;20040;-83
2022/06/18 13:19:08;;;;;;;7.05;2.08;;;25.20;99.90;;;;;;5044340;28;20199;-84
2022/06/18 13:21:33;;;;;;;9.35;1.48;;;24.70;99.90;;;;;;5050674;28;20049;-84
2022/06/18 13:30:23;;;;;;;8.93;1.67;;;25.10;99.90;;;;;;4990264;28;20119;-81